createdAt,value
2022-10-01T00:00:36.839Z,1000.9
2022-10-01T00:01:39.366Z,1000.9
2022-10-01T00:02:43.534Z,1000.9
2022-10-01T00:03:46.866Z,1000.9
2022-10-01T00:04:49.607Z,1000.9
2022-10-01T00:05:53.436Z,1000.9
2022-10-01T00:06:56.903Z,1000.9
2022-10-01T00:08:00.562Z,1000.9
2022-10-01T00:09:03.775Z,1000.9
2022-10-01T00:10:06.488Z,1000.8
2022-10-01T00:11:09.347Z,1000.9
2022-10-01T00:12:12.627Z,1000.8
2022-10-01T00:13:15.581Z,1000.8
2022-10-01T00:14:18.111Z,1000.8
2022-10-01T00:15:20.837Z,1000.8
2022-10-01T00:16:23.619Z,1000.8
2022-10-01T00:17:27.679Z,1000.8
2022-10-01T00:18:30.922Z,1000.7
2022-10-01T00:19:34.090Z,1000.7
2022-10-01T00:20:36.399Z,1000.8
2022-10-01T00:21:39.807Z,1000.7
2022-10-01T00:22:43.473Z,1000.7
2022-10-01T00:23:47.232Z,1000.7
2022-10-01T00:24:49.547Z,1000.7
2022-10-01T00:25:52.064Z,1000.6
2022-10-01T00:26:54.219Z,1000.7
2022-10-01T00:27:57.522Z,1000.6
2022-10-01T00:29:00.956Z,1000.6
2022-10-01T00:30:03.753Z,1000.6
2022-10-01T00:31:07.367Z,1000.6
2022-10-01T00:32:10.200Z,1000.6
2022-10-01T00:33:12.872Z,1000.5
2022-10-01T00:34:15.667Z,1000.5
2022-10-01T00:35:18.831Z,1000.5
2022-10-01T00:36:21.422Z,1000.5
2022-10-01T00:37:25.229Z,1000.5
2022-10-01T00:38:28.059Z,1000.5
2022-10-01T00:39:31.168Z,1000.5
2022-10-01T00:40:34.024Z,1000.4
2022-10-01T00:41:37.916Z,1000.4
2022-10-01T00:42:40.745Z,1000.4
2022-10-01T00:43:43.835Z,1000.4
2022-10-01T00:44:47.482Z,1000.3
2022-10-01T00:45:50.732Z,1000.4
2022-10-01T00:46:54.205Z,1000.3
2022-10-01T00:47:56.923Z,1000.3
2022-10-01T00:49:00.014Z,1000.3
2022-10-01T00:50:03.103Z,1000.3
2022-10-01T00:51:05.943Z,1000.2
2022-10-01T00:52:08.654Z,1000.2
2022-10-01T00:53:12.404Z,1000.2
2022-10-01T00:54:15.481Z,1000.2
2022-10-01T00:55:18.915Z,1000.2
2022-10-01T00:56:22.073Z,1000.2
2022-10-01T00:57:25.523Z,1000.2
2022-10-01T00:58:28.599Z,1000.2
2022-10-01T00:59:32.046Z,1000.2
2022-10-01T01:00:35.070Z,1000.2
2022-10-01T01:01:38.833Z,1000.2
2022-10-01T01:02:41.988Z,1000.1
2022-10-01T01:03:45.104Z,1000.2
2022-10-01T01:04:48.169Z,1000.1
2022-10-01T01:05:51.034Z,1000.1
2022-10-01T01:06:53.833Z,1000.1
2022-10-01T01:07:56.922Z,1000.1
2022-10-01T01:09:00.751Z,1000.1
2022-10-01T01:10:03.360Z,1000.1
2022-10-01T01:11:07.000Z,1000.1
2022-10-01T01:12:10.180Z,1000.1
2022-10-01T01:13:13.446Z,1000.1
2022-10-01T01:14:16.405Z,1000.1
2022-10-01T01:15:19.773Z,1000.1
2022-10-01T01:16:22.756Z,1000
2022-10-01T01:17:26.846Z,1000
2022-10-01T01:18:29.364Z,1000
2022-10-01T01:19:31.677Z,1000
2022-10-01T01:20:34.545Z,1000
2022-10-01T01:21:38.263Z,1000
2022-10-01T01:22:41.134Z,999.9
2022-10-01T01:23:44.476Z,1000
2022-10-01T01:24:48.578Z,999.9
2022-10-01T01:25:51.783Z,999.9
2022-10-01T01:26:55.239Z,999.9
2022-10-01T01:27:58.881Z,999.9
2022-10-01T01:29:01.939Z,999.9
2022-10-01T01:30:04.589Z,999.9
2022-10-01T01:31:07.440Z,999.9
2022-10-01T01:32:15.152Z,999.9
2022-10-01T01:33:18.375Z,999.9
2022-10-01T01:34:21.167Z,999.9
2022-10-01T01:35:23.949Z,999.9
2022-10-01T01:36:26.522Z,999.8
2022-10-01T01:37:29.875Z,999.8
2022-10-01T01:38:33.222Z,999.8
2022-10-01T01:39:35.936Z,999.7
2022-10-01T01:40:39.546Z,999.7
2022-10-01T01:41:42.899Z,999.7
2022-10-01T01:42:46.430Z,999.7
2022-10-01T01:43:49.858Z,999.6
2022-10-01T01:44:53.127Z,999.7
2022-10-01T01:45:56.386Z,999.7
2022-10-01T01:47:00.084Z,999.6
2022-10-01T01:48:03.499Z,999.6
2022-10-01T01:49:05.728Z,999.6
2022-10-01T01:50:08.342Z,999.6
2022-10-01T01:51:11.681Z,999.6
2022-10-01T01:52:14.847Z,999.5
2022-10-01T01:53:17.839Z,999.6
2022-10-01T01:54:20.270Z,999.5
2022-10-01T01:55:22.787Z,999.5
2022-10-01T01:56:26.547Z,999.5
2022-10-01T01:57:29.633Z,999.5
2022-10-01T01:58:33.481Z,999.5
2022-10-01T01:59:36.552Z,999.5
2022-10-01T02:00:39.696Z,999.5
2022-10-01T02:01:43.017Z,999.5
2022-10-01T02:02:46.361Z,999.5
2022-10-01T02:03:49.928Z,999.5
2022-10-01T02:04:52.441Z,999.4
2022-10-01T02:05:55.606Z,999.5
2022-10-01T02:06:58.467Z,999.4
2022-10-01T02:08:01.816Z,999.4
2022-10-01T02:09:03.691Z,999.4
2022-10-01T02:10:06.753Z,999.4
2022-10-01T02:11:10.170Z,999.4
2022-10-01T02:12:13.300Z,999.4
2022-10-01T02:13:16.390Z,999.4
2022-10-01T02:14:19.856Z,999.4
2022-10-01T02:15:22.563Z,999.3
2022-10-01T02:16:25.919Z,999.3
2022-10-01T02:17:29.486Z,999.3
2022-10-01T02:18:32.951Z,999.3
2022-10-01T02:19:35.259Z,999.3
2022-10-01T02:20:38.696Z,999.3
2022-10-01T02:21:41.562Z,999.3
2022-10-01T02:22:44.640Z,999.2
2022-10-01T02:23:47.702Z,999.3
2022-10-01T02:24:50.399Z,999.3
2022-10-01T02:25:53.549Z,999.3
2022-10-01T02:26:56.971Z,999.3
2022-10-01T02:28:00.642Z,999.3
2022-10-01T02:29:04.264Z,999.2
2022-10-01T02:30:07.463Z,999.2
2022-10-01T02:31:10.118Z,999.2
2022-10-01T02:32:13.302Z,999.2
2022-10-01T02:33:15.881Z,999.2
2022-10-01T02:34:20.975Z,999.2
2022-10-01T02:35:23.832Z,999.2
2022-10-01T02:36:26.902Z,999.1
2022-10-01T02:37:29.572Z,999.2
2022-10-01T02:38:33.016Z,999.1
2022-10-01T02:39:36.004Z,999.2
2022-10-01T02:40:39.068Z,999.1
2022-10-01T02:41:41.759Z,999.1
2022-10-01T02:42:44.857Z,999.1
2022-10-01T02:43:48.630Z,999.1
2022-10-01T02:44:51.503Z,999.1
2022-10-01T02:45:55.407Z,999.1
2022-10-01T02:46:58.618Z,999.1
2022-10-01T02:48:01.205Z,999.1
2022-10-01T02:49:03.998Z,999
2022-10-01T02:50:07.089Z,999
2022-10-01T02:51:10.150Z,999
2022-10-01T02:52:13.418Z,999
2022-10-01T02:53:16.759Z,999
2022-10-01T02:54:19.667Z,999
2022-10-01T02:55:22.185Z,998.9
2022-10-01T02:56:24.967Z,998.9
2022-10-01T02:57:27.337Z,998.9
2022-10-01T02:58:30.664Z,998.9
2022-10-01T02:59:34.322Z,998.9
2022-10-01T03:00:37.408Z,998.9
2022-10-01T03:01:41.260Z,998.9
2022-10-01T03:02:44.421Z,998.9
2022-10-01T03:03:48.585Z,998.9
2022-10-01T03:04:51.468Z,998.9
2022-10-01T03:05:54.371Z,998.8
2022-10-01T03:06:57.510Z,998.8
2022-10-01T03:08:00.880Z,998.8
2022-10-01T03:09:03.947Z,998.8
2022-10-01T03:10:07.096Z,998.7
2022-10-01T03:11:10.821Z,998.7
2022-10-01T03:12:13.694Z,998.7
2022-10-01T03:13:16.293Z,998.7
2022-10-01T03:14:19.839Z,998.7
2022-10-01T03:15:23.251Z,998.6
2022-10-01T03:16:26.270Z,998.7
2022-10-01T03:17:29.924Z,998.6
2022-10-01T03:18:32.982Z,998.6
2022-10-01T03:19:35.837Z,998.6
2022-10-01T03:20:38.993Z,998.5
2022-10-01T03:21:42.179Z,998.6
2022-10-01T03:22:45.550Z,998.6
2022-10-01T03:23:48.344Z,998.5
2022-10-01T03:24:51.487Z,998.5
2022-10-01T03:25:54.630Z,998.5
2022-10-01T03:26:57.579Z,998.5
2022-10-01T03:28:00.877Z,998.5
2022-10-01T03:29:03.842Z,998.4
2022-10-01T03:30:06.995Z,998.4
2022-10-01T03:31:10.833Z,998.4
2022-10-01T03:32:14.256Z,998.3
2022-10-01T03:33:18.027Z,998.3
2022-10-01T03:34:21.253Z,998.3
2022-10-01T03:35:24.602Z,998.3
2022-10-01T03:36:26.757Z,998.3
2022-10-01T03:37:29.653Z,998.3
2022-10-01T03:38:32.993Z,998.2
2022-10-01T03:39:35.859Z,998.2
2022-10-01T03:40:38.301Z,998.2
2022-10-01T03:41:41.370Z,998.2
2022-10-01T03:42:44.535Z,998.2
2022-10-01T03:43:47.349Z,998.1
2022-10-01T03:44:50.799Z,998.1
2022-10-01T03:45:53.825Z,998.1
2022-10-01T03:46:57.316Z,998.1
2022-10-01T03:48:00.703Z,998.1
2022-10-01T03:49:03.615Z,998.1
2022-10-01T03:50:06.494Z,998.1
2022-10-01T03:51:09.747Z,998
2022-10-01T03:52:13.270Z,998
2022-10-01T03:53:16.718Z,998.1
2022-10-01T03:54:19.235Z,998
2022-10-01T03:55:22.301Z,998
2022-10-01T03:56:25.447Z,998
2022-10-01T03:57:28.597Z,998
2022-10-01T03:58:31.467Z,998
2022-10-01T03:59:34.810Z,998
2022-10-01T04:00:37.319Z,998
2022-10-01T04:01:41.109Z,997.9
2022-10-01T04:02:45.811Z,998
2022-10-01T04:03:49.801Z,997.9
2022-10-01T04:04:53.556Z,997.9
2022-10-01T04:05:56.419Z,997.9
2022-10-01T04:06:58.939Z,997.9
2022-10-01T04:08:01.446Z,997.9
2022-10-01T04:09:04.342Z,997.8
2022-10-01T04:10:06.945Z,997.9
2022-10-01T04:11:09.655Z,997.8
2022-10-01T04:12:13.379Z,997.9
2022-10-01T04:13:16.378Z,997.9
2022-10-01T04:14:20.171Z,997.9
2022-10-01T04:15:23.618Z,997.9
2022-10-01T04:16:26.811Z,997.8
2022-10-01T04:17:30.171Z,997.8
2022-10-01T04:18:33.317Z,997.8
2022-10-01T04:19:36.782Z,997.8
2022-10-01T04:20:40.244Z,997.8
2022-10-01T04:21:42.861Z,997.7
2022-10-01T04:22:45.455Z,997.7
2022-10-01T04:23:48.515Z,997.8
2022-10-01T04:24:52.254Z,997.7
2022-10-01T04:25:54.674Z,997.7
2022-10-01T04:26:57.885Z,997.7
2022-10-01T04:28:01.157Z,997.7
2022-10-01T04:29:04.455Z,997.7
2022-10-01T04:30:06.984Z,997.7
2022-10-01T04:31:10.474Z,997.7
2022-10-01T04:32:13.606Z,997.7
2022-10-01T04:33:16.901Z,997.7
2022-10-01T04:34:20.131Z,997.6
2022-10-01T04:35:23.496Z,997.6
2022-10-01T04:36:27.033Z,997.6
2022-10-01T04:37:29.824Z,997.6
2022-10-01T04:38:32.329Z,997.5
2022-10-01T04:39:35.042Z,997.6
2022-10-01T04:40:37.788Z,997.5
2022-10-01T04:41:40.957Z,997.5
2022-10-01T04:42:43.474Z,997.5
2022-10-01T04:43:46.733Z,997.5
2022-10-01T04:44:50.437Z,997.5
2022-10-01T04:45:53.517Z,997.5
2022-10-01T04:46:55.988Z,997.4
2022-10-01T04:47:59.389Z,997.4
2022-10-01T04:49:02.918Z,997.4
2022-10-01T04:50:06.129Z,997.5
2022-10-01T04:51:09.643Z,997.4
2022-10-01T04:52:13.733Z,997.4
2022-10-01T04:53:16.724Z,997.4
2022-10-01T04:54:18.960Z,997.4
2022-10-01T04:55:21.739Z,997.4
2022-10-01T04:56:24.978Z,997.4
2022-10-01T04:57:28.027Z,997.3
2022-10-01T04:58:30.623Z,997.4
2022-10-01T04:59:33.968Z,997.4
2022-10-01T05:00:37.560Z,997.4
2022-10-01T05:01:41.344Z,997.4
2022-10-01T05:02:45.081Z,997.4
2022-10-01T05:03:47.795Z,997.4
2022-10-01T05:04:50.583Z,997.4
2022-10-01T05:05:54.052Z,997.3
2022-10-01T05:06:57.798Z,997.3
2022-10-01T05:08:01.838Z,997.3
2022-10-01T05:09:04.273Z,997.2
2022-10-01T05:10:07.442Z,997.3
2022-10-01T05:11:09.955Z,997.2
2022-10-01T05:12:12.572Z,997.3
2022-10-01T05:13:15.721Z,997.3
2022-10-01T05:14:18.709Z,997.2
2022-10-01T05:15:22.151Z,997.2
2022-10-01T05:16:25.118Z,997.2
2022-10-01T05:17:29.100Z,997.2
2022-10-01T05:18:32.258Z,997.2
2022-10-01T05:19:34.795Z,997.2
2022-10-01T05:20:37.662Z,997.2
2022-10-01T05:21:41.079Z,997.2
2022-10-01T05:22:43.965Z,997.2
2022-10-01T05:23:47.253Z,997.2
2022-10-01T05:24:49.585Z,997.2
2022-10-01T05:25:52.739Z,997.1
2022-10-01T05:26:55.808Z,997.1
2022-10-01T05:27:58.460Z,997.1
2022-10-01T05:29:01.866Z,997.1
2022-10-01T05:30:04.684Z,997.1
2022-10-01T05:31:08.609Z,997.1
2022-10-01T05:32:11.583Z,997.1
2022-10-01T05:33:15.125Z,997
2022-10-01T05:34:18.041Z,997
2022-10-01T05:35:21.177Z,997.1
2022-10-01T05:36:24.242Z,997.1
2022-10-01T05:37:27.738Z,997
2022-10-01T05:38:30.399Z,997.1
2022-10-01T05:39:33.888Z,997.1
2022-10-01T05:40:36.563Z,997
2022-10-01T05:41:39.353Z,997
2022-10-01T05:42:42.519Z,996.9
2022-10-01T05:43:45.607Z,997
2022-10-01T05:44:48.673Z,997
2022-10-01T05:45:51.455Z,997
2022-10-01T05:46:55.073Z,997
2022-10-01T05:47:58.539Z,997
2022-10-01T05:49:01.406Z,996.9
2022-10-01T05:50:04.477Z,996.9
2022-10-01T05:51:07.202Z,996.9
2022-10-01T05:52:10.913Z,996.8
2022-10-01T05:53:14.817Z,996.9
2022-10-01T05:54:18.166Z,996.8
2022-10-01T05:55:21.728Z,996.9
2022-10-01T05:56:25.497Z,996.8
2022-10-01T05:57:27.928Z,996.9
2022-10-01T05:58:31.367Z,996.9
2022-10-01T05:59:35.017Z,996.8
2022-10-01T06:00:38.136Z,996.8
2022-10-01T06:01:40.984Z,996.8
2022-10-01T06:02:44.896Z,996.7
2022-10-01T06:03:48.851Z,996.7
2022-10-01T06:04:51.521Z,996.7
2022-10-01T06:05:54.969Z,996.7
2022-10-01T06:06:57.765Z,996.7
2022-10-01T06:08:00.724Z,996.6
2022-10-01T06:09:04.143Z,996.5
2022-10-01T06:10:07.112Z,996.6
2022-10-01T06:11:10.210Z,996.6
2022-10-01T06:12:19.772Z,996.6
2022-10-01T06:13:23.183Z,996.6
2022-10-01T06:14:25.976Z,996.6
2022-10-01T06:15:29.250Z,996.5
2022-10-01T06:16:32.824Z,996.5
2022-10-01T06:17:36.441Z,996.5
2022-10-01T06:18:39.714Z,996.5
2022-10-01T06:19:43.233Z,996.5
2022-10-01T06:20:46.020Z,996.4
2022-10-01T06:21:49.108Z,996.4
2022-10-01T06:22:51.826Z,996.4
2022-10-01T06:23:54.922Z,996.4
2022-10-01T06:24:58.414Z,996.4
2022-10-01T06:26:01.795Z,996.4
2022-10-01T06:27:04.628Z,996.4
2022-10-01T06:28:08.081Z,996.3
2022-10-01T06:29:11.527Z,996.4
2022-10-01T06:30:14.403Z,996.3
2022-10-01T06:31:17.564Z,996.3
2022-10-01T06:32:20.439Z,996.3
2022-10-01T06:33:22.922Z,996.3
2022-10-01T06:34:25.247Z,996.3
2022-10-01T06:35:28.313Z,996.3
2022-10-01T06:36:31.486Z,996.3
2022-10-01T06:37:34.628Z,996.2
2022-10-01T06:38:37.408Z,996.2
2022-10-01T06:39:40.466Z,996.1
2022-10-01T06:40:44.278Z,996.1
2022-10-01T06:41:47.089Z,996
2022-10-01T06:42:56.768Z,996
2022-10-01T06:44:00.168Z,996.1
2022-10-01T06:45:03.040Z,996.1
2022-10-01T06:46:06.602Z,996
2022-10-01T06:47:10.610Z,995.9
2022-10-01T06:48:13.316Z,995.9
2022-10-01T06:49:16.762Z,996
2022-10-01T06:50:19.083Z,995.9
2022-10-01T06:51:22.546Z,996
2022-10-01T06:52:24.980Z,995.9
2022-10-01T06:53:28.072Z,995.9
2022-10-01T06:54:31.222Z,995.9
2022-10-01T06:55:34.924Z,996
2022-10-01T06:56:38.505Z,995.8
2022-10-01T06:57:42.058Z,995.9
2022-10-01T06:58:46.098Z,995.8
2022-10-01T06:59:48.962Z,995.7
2022-10-01T07:00:52.227Z,995.9
2022-10-01T07:01:57.083Z,995.7
2022-10-01T07:02:59.602Z,995.7
2022-10-01T07:04:02.572Z,995.7
2022-10-01T07:05:05.947Z,995.7
2022-10-01T07:06:08.661Z,995.6
2022-10-01T07:07:11.097Z,995.6
2022-10-01T07:08:13.912Z,995.7
2022-10-01T07:09:16.587Z,995.6
2022-10-01T07:10:20.284Z,995.6
2022-10-01T07:11:23.554Z,995.7
2022-10-01T07:12:26.973Z,995.6
2022-10-01T07:13:30.144Z,995.6
2022-10-01T07:14:33.112Z,995.6
2022-10-01T07:15:36.104Z,995.6
2022-10-01T07:16:39.989Z,995.6
2022-10-01T07:17:43.796Z,995.6
2022-10-01T07:18:47.165Z,995.6
2022-10-01T07:19:49.869Z,995.6
2022-10-01T07:20:52.960Z,995.6
2022-10-01T07:21:56.306Z,995.6
2022-10-01T07:22:59.020Z,995.5
2022-10-01T07:24:02.739Z,995.5
2022-10-01T07:25:05.883Z,995.6
2022-10-01T07:26:08.971Z,995.5
2022-10-01T07:27:12.320Z,995.5
2022-10-01T07:28:15.695Z,995.5
2022-10-01T07:29:20.314Z,995.4
2022-10-01T07:30:23.520Z,995.4
2022-10-01T07:31:26.379Z,995.4
2022-10-01T07:32:30.063Z,995.4
2022-10-01T07:33:32.849Z,995.4
2022-10-01T07:34:35.463Z,995.4
2022-10-01T07:35:37.951Z,995.4
2022-10-01T07:36:41.008Z,995.4
2022-10-01T07:37:43.929Z,995.4
2022-10-01T07:38:46.798Z,995.4
2022-10-01T07:39:50.253Z,995.4
2022-10-01T07:40:54.253Z,995.5
2022-10-01T07:41:57.561Z,995.4
2022-10-01T07:43:00.204Z,995.4
2022-10-01T07:44:03.939Z,995.4
2022-10-01T07:45:07.198Z,995.3
2022-10-01T07:46:10.712Z,995.3
2022-10-01T07:47:14.003Z,995.3
2022-10-01T07:48:17.375Z,995.3
2022-10-01T07:49:20.251Z,995.2
2022-10-01T07:50:23.288Z,995.2
2022-10-01T07:51:27.082Z,995.1
2022-10-01T07:52:29.612Z,995.2
2022-10-01T07:53:32.958Z,995.2
2022-10-01T07:54:35.670Z,995.1
2022-10-01T07:55:38.625Z,995.2
2022-10-01T07:56:42.050Z,995.1
2022-10-01T07:57:45.227Z,995.1
2022-10-01T07:58:48.015Z,995.1
2022-10-01T07:59:56.364Z,995
2022-10-01T08:00:59.430Z,995
2022-10-01T08:02:03.663Z,995
2022-10-01T08:03:06.688Z,994.9
2022-10-01T08:04:10.024Z,994.9
2022-10-01T08:05:13.551Z,994.9
2022-10-01T08:06:16.363Z,994.9
2022-10-01T08:07:27.206Z,994.8
2022-10-01T08:08:30.929Z,994.9
2022-10-01T08:09:34.650Z,994.9
2022-10-01T08:10:37.414Z,995
2022-10-01T08:11:39.576Z,994.9
2022-10-01T08:12:42.362Z,995
2022-10-01T08:13:45.426Z,995
2022-10-01T08:14:48.138Z,994.9
2022-10-01T08:15:51.630Z,994.9
2022-10-01T08:16:54.868Z,994.9
2022-10-01T08:17:58.364Z,994.9
2022-10-01T08:19:01.156Z,994.9
2022-10-01T08:20:04.609Z,994.9
2022-10-01T08:21:07.411Z,994.9
2022-10-01T08:22:10.461Z,994.9
2022-10-01T08:23:13.813Z,994.9
2022-10-01T08:24:16.682Z,994.9
2022-10-01T08:25:19.196Z,994.9
2022-10-01T08:26:22.264Z,994.9
2022-10-01T08:27:25.629Z,994.9
2022-10-01T08:28:28.641Z,994.9
2022-10-01T08:29:32.001Z,994.9
2022-10-01T08:30:35.094Z,994.8
2022-10-01T08:31:38.757Z,994.8
2022-10-01T08:32:41.288Z,994.8
2022-10-01T08:33:44.526Z,994.9
2022-10-01T08:34:47.606Z,994.9
2022-10-01T08:35:58.921Z,995
2022-10-01T08:37:02.342Z,994.9
2022-10-01T08:38:05.543Z,994.9
2022-10-01T08:39:09.007Z,994.8
2022-10-01T08:40:12.272Z,994.9
2022-10-01T08:41:14.979Z,994.9
2022-10-01T08:42:25.393Z,994.8
2022-10-01T08:43:28.454Z,994.8
2022-10-01T08:44:31.248Z,994.7
2022-10-01T08:45:34.152Z,994.8
2022-10-01T08:46:37.261Z,994.8
2022-10-01T08:47:40.759Z,994.8
2022-10-01T08:48:43.920Z,994.8
2022-10-01T08:49:47.768Z,994.8
2022-10-01T08:50:50.837Z,994.7
2022-10-01T08:51:52.995Z,994.7
2022-10-01T08:52:55.875Z,994.7
2022-10-01T08:53:59.655Z,994.7
2022-10-01T08:55:02.725Z,994.9
2022-10-01T08:56:05.904Z,994.7
2022-10-01T08:57:09.205Z,994.7
2022-10-01T08:58:11.634Z,994.7
2022-10-01T08:59:15.042Z,994.7
2022-10-01T09:00:18.263Z,994.7
2022-10-01T09:01:21.605Z,994.7
2022-10-01T09:02:24.441Z,994.7
2022-10-01T09:03:27.943Z,994.7
2022-10-01T09:04:31.476Z,994.6
2022-10-01T09:05:35.544Z,994.6
2022-10-01T09:06:38.483Z,994.6
2022-10-01T09:07:42.212Z,994.6
2022-10-01T09:08:45.563Z,994.8
2022-10-01T09:09:48.299Z,994.6
2022-10-01T09:10:51.441Z,994.6
2022-10-01T09:11:54.792Z,994.6
2022-10-01T09:12:57.307Z,994.6
2022-10-01T09:14:01.035Z,994.5
2022-10-01T09:15:04.188Z,994.5
2022-10-01T09:16:07.580Z,994.4
2022-10-01T09:17:11.090Z,994.4
2022-10-01T09:18:14.071Z,994.4
2022-10-01T09:19:17.580Z,994.4
2022-10-01T09:20:20.395Z,994.4
2022-10-01T09:21:23.594Z,994.5
2022-10-01T09:22:27.045Z,994.5
2022-10-01T09:23:29.915Z,994.4
2022-10-01T09:24:32.581Z,994.4
2022-10-01T09:25:35.747Z,994.3
2022-10-01T09:26:38.810Z,994.4
2022-10-01T09:27:42.503Z,994.4
2022-10-01T09:28:45.272Z,994.4
2022-10-01T09:29:48.141Z,994.3
2022-10-01T09:30:50.941Z,994.4
2022-10-01T09:31:53.097Z,994.4
2022-10-01T09:32:56.298Z,994.3
2022-10-01T09:33:59.371Z,994.3
2022-10-01T09:35:05.200Z,994.3
2022-10-01T09:36:08.839Z,994.3
2022-10-01T09:37:12.379Z,994.2
2022-10-01T09:38:16.374Z,994.2
2022-10-01T09:39:19.167Z,994.2
2022-10-01T09:40:21.873Z,994.2
2022-10-01T09:41:24.411Z,994.2
2022-10-01T09:42:28.198Z,994.2
2022-10-01T09:43:31.538Z,994.2
2022-10-01T09:44:34.328Z,994.2
2022-10-01T09:45:37.091Z,994.2
2022-10-01T09:46:40.493Z,994.2
2022-10-01T09:47:43.283Z,994.1
2022-10-01T09:48:46.350Z,994.2
2022-10-01T09:49:49.151Z,994.1
2022-10-01T09:50:52.149Z,994.2
2022-10-01T09:51:55.305Z,994.2
2022-10-01T09:52:58.744Z,994.1
2022-10-01T09:54:02.137Z,994.1
2022-10-01T09:55:04.845Z,994.1
2022-10-01T09:56:07.999Z,994.1
2022-10-01T09:57:11.092Z,994.1
2022-10-01T09:58:14.237Z,994.1
2022-10-01T09:59:17.669Z,994.1
2022-10-01T10:00:20.089Z,994.1
2022-10-01T10:01:22.723Z,994
2022-10-01T10:02:25.428Z,994
2022-10-01T10:03:28.844Z,994
2022-10-01T10:04:32.874Z,994
2022-10-01T10:05:36.217Z,994
2022-10-01T10:06:39.855Z,994
2022-10-01T10:07:43.534Z,994
2022-10-01T10:08:46.925Z,993.9
2022-10-01T10:09:50.110Z,993.9
2022-10-01T10:10:53.367Z,993.9
2022-10-01T10:11:56.251Z,993.9
2022-10-01T10:13:00.299Z,993.9
2022-10-01T10:14:02.575Z,993.9
2022-10-01T10:15:05.652Z,993.8
2022-10-01T10:16:09.564Z,993.8
2022-10-01T10:17:13.390Z,993.8
2022-10-01T10:18:23.901Z,993.8
2022-10-01T10:19:28.037Z,993.9
2022-10-01T10:20:31.113Z,993.9
2022-10-01T10:21:34.557Z,993.9
2022-10-01T10:22:37.977Z,993.8
2022-10-01T10:23:40.991Z,993.8
2022-10-01T10:24:44.192Z,993.8
2022-10-01T10:25:47.642Z,993.8
2022-10-01T10:26:51.140Z,993.8
2022-10-01T10:27:54.070Z,993.8
2022-10-01T10:28:58.104Z,993.8
2022-10-01T10:30:01.104Z,993.8
2022-10-01T10:31:04.191Z,993.9
2022-10-01T10:32:07.304Z,993.8
2022-10-01T10:33:10.098Z,993.8
2022-10-01T10:34:13.565Z,993.8
2022-10-01T10:35:16.031Z,993.8
2022-10-01T10:36:19.405Z,993.8
2022-10-01T10:37:22.568Z,993.8
2022-10-01T10:38:25.501Z,993.8
2022-10-01T10:39:28.309Z,993.8
2022-10-01T10:40:31.875Z,993.8
2022-10-01T10:41:35.934Z,993.8
2022-10-01T10:42:40.959Z,993.7
2022-10-01T10:43:43.437Z,993.7
2022-10-01T10:44:46.686Z,993.8
2022-10-01T10:45:49.639Z,993.7
2022-10-01T10:46:53.251Z,993.7
2022-10-01T10:47:56.613Z,993.7
2022-10-01T10:49:00.023Z,993.7
2022-10-01T10:50:03.433Z,993.8
2022-10-01T10:51:06.038Z,993.7
2022-10-01T10:52:08.737Z,993.8
2022-10-01T10:53:11.521Z,993.8
2022-10-01T10:54:15.020Z,993.8
2022-10-01T10:55:18.332Z,993.8
2022-10-01T10:56:22.401Z,993.7
2022-10-01T10:57:25.974Z,993.8
2022-10-01T10:58:29.563Z,993.8
2022-10-01T10:59:32.093Z,993.8
2022-10-01T11:00:35.754Z,993.8
2022-10-01T11:01:39.333Z,993.8
2022-10-01T11:02:43.162Z,993.8
2022-10-01T11:03:46.607Z,993.8
2022-10-01T11:04:50.092Z,993.8
2022-10-01T11:05:53.281Z,993.8
2022-10-01T11:06:56.942Z,993.8
2022-10-01T11:07:59.189Z,993.8
2022-10-01T11:09:02.258Z,993.7
2022-10-01T11:10:06.031Z,993.8
2022-10-01T11:11:08.923Z,993.8
2022-10-01T11:12:12.595Z,993.8
2022-10-01T11:13:15.867Z,993.8
2022-10-01T11:14:24.138Z,993.8
2022-10-01T11:15:26.932Z,993.8
2022-10-01T11:16:30.111Z,993.7
2022-10-01T11:17:33.983Z,993.8
2022-10-01T11:18:37.253Z,993.7
2022-10-01T11:19:40.425Z,993.8
2022-10-01T11:20:43.487Z,993.8
2022-10-01T11:21:46.856Z,993.8
2022-10-01T11:22:50.127Z,993.8
2022-10-01T11:23:54.125Z,993.8
2022-10-01T11:24:57.201Z,993.8
2022-10-01T11:26:00.684Z,993.8
2022-10-01T11:27:03.773Z,993.8
2022-10-01T11:28:07.495Z,993.9
2022-10-01T11:29:10.604Z,993.8
2022-10-01T11:30:13.317Z,993.8
2022-10-01T11:31:16.190Z,993.7
2022-10-01T11:32:20.048Z,993.8
2022-10-01T11:33:23.038Z,993.8
2022-10-01T11:34:25.637Z,993.8
2022-10-01T11:35:29.095Z,993.8
2022-10-01T11:36:32.482Z,993.8
2022-10-01T11:37:37.004Z,993.8
2022-10-01T11:38:39.436Z,993.9
2022-10-01T11:39:41.958Z,993.8
2022-10-01T11:40:44.673Z,993.9
2022-10-01T11:41:48.796Z,993.9
2022-10-01T11:42:51.249Z,993.8
2022-10-01T11:43:54.170Z,993.8
2022-10-01T11:45:01.147Z,993.9
2022-10-01T11:46:04.209Z,993.9
2022-10-01T11:47:06.945Z,993.8
2022-10-01T11:48:10.066Z,993.8
2022-10-01T11:49:13.136Z,993.9
2022-10-01T11:50:15.928Z,993.9
2022-10-01T11:51:18.717Z,993.9
2022-10-01T11:52:21.814Z,993.9
2022-10-01T11:53:24.683Z,993.9
2022-10-01T11:54:27.752Z,993.9
2022-10-01T11:55:31.499Z,993.9
2022-10-01T11:56:34.923Z,993.9
2022-10-01T11:57:40.070Z,993.9
2022-10-01T11:58:42.619Z,993.9
2022-10-01T11:59:46.025Z,993.9
2022-10-01T12:00:48.812Z,993.9
2022-10-01T12:01:51.630Z,993.8
2022-10-01T12:02:55.444Z,993.9
2022-10-01T12:03:58.415Z,993.9
2022-10-01T12:05:00.842Z,994
2022-10-01T12:06:04.582Z,993.9
2022-10-01T12:07:07.017Z,993.9
2022-10-01T12:08:09.871Z,993.8
2022-10-01T12:09:13.224Z,993.8
2022-10-01T12:10:16.571Z,993.9
2022-10-01T12:11:19.368Z,993.8
2022-10-01T12:12:22.157Z,993.9
2022-10-01T12:13:26.259Z,993.9
2022-10-01T12:14:29.329Z,993.9
2022-10-01T12:15:32.444Z,993.9
2022-10-01T12:16:36.374Z,993.9
2022-10-01T12:17:40.932Z,993.9
2022-10-01T12:18:44.377Z,993.9
2022-10-01T12:19:47.220Z,993.9
2022-10-01T12:20:50.374Z,993.9
2022-10-01T12:21:53.272Z,993.9
2022-10-01T12:22:56.376Z,993.9
2022-10-01T12:23:59.763Z,993.9
2022-10-01T12:25:03.538Z,993.9
2022-10-01T12:26:06.696Z,993.9
2022-10-01T12:27:09.853Z,993.9
2022-10-01T12:28:12.903Z,993.9
2022-10-01T12:29:17.122Z,993.9
2022-10-01T12:30:20.649Z,993.9
2022-10-01T12:31:24.166Z,994
2022-10-01T12:32:27.096Z,993.9
2022-10-01T12:33:30.795Z,993.9
2022-10-01T12:34:33.321Z,993.9
2022-10-01T12:35:36.536Z,993.9
2022-10-01T12:36:40.064Z,993.9
2022-10-01T12:37:43.244Z,993.9
2022-10-01T12:38:45.985Z,993.9
2022-10-01T12:39:48.787Z,993.9
2022-10-01T12:40:51.953Z,993.9
2022-10-01T12:41:55.681Z,993.9
2022-10-01T12:43:04.574Z,993.9
2022-10-01T12:44:07.705Z,993.9
2022-10-01T12:45:10.914Z,994
2022-10-01T12:46:14.705Z,994
2022-10-01T12:47:18.207Z,993.9
2022-10-01T12:48:21.201Z,993.9
2022-10-01T12:49:24.576Z,993.9
2022-10-01T12:50:27.459Z,994
2022-10-01T12:51:30.201Z,994
2022-10-01T12:52:33.200Z,994
2022-10-01T12:53:36.912Z,994
2022-10-01T12:54:40.285Z,994
2022-10-01T12:55:43.078Z,993.9
2022-10-01T12:56:45.794Z,993.9
2022-10-01T12:57:48.858Z,993.9
2022-10-01T12:58:52.033Z,994
2022-10-01T12:59:55.202Z,993.9
2022-10-01T13:00:58.825Z,993.9
2022-10-01T13:02:02.565Z,994
2022-10-01T13:03:06.816Z,993.9
2022-10-01T13:04:09.801Z,994
2022-10-01T13:05:12.669Z,994
2022-10-01T13:06:15.940Z,994
2022-10-01T13:07:19.111Z,994
2022-10-01T13:08:22.532Z,994
2022-10-01T13:09:25.352Z,994
2022-10-01T13:10:28.882Z,993.9
2022-10-01T13:11:31.730Z,993.9
2022-10-01T13:12:35.023Z,993.9
2022-10-01T13:13:38.263Z,993.8
2022-10-01T13:14:41.138Z,993.9
2022-10-01T13:15:43.750Z,993.9
2022-10-01T13:16:48.558Z,993.9
2022-10-01T13:17:50.890Z,993.8
2022-10-01T13:18:54.459Z,993.8
2022-10-01T13:19:58.163Z,993.8
2022-10-01T13:21:00.293Z,993.8
2022-10-01T13:22:04.009Z,993.8
2022-10-01T13:23:06.823Z,993.8
2022-10-01T13:24:10.571Z,993.8
2022-10-01T13:25:13.646Z,993.8
2022-10-01T13:26:16.318Z,993.8
2022-10-01T13:27:19.740Z,993.8
2022-10-01T13:28:22.983Z,993.8
2022-10-01T13:29:26.474Z,993.8
2022-10-01T13:30:29.478Z,993.8
2022-10-01T13:31:33.127Z,993.8
2022-10-01T13:32:36.362Z,993.8
2022-10-01T13:33:40.118Z,993.8
2022-10-01T13:34:43.938Z,993.8
2022-10-01T13:35:47.201Z,993.8
2022-10-01T13:36:49.988Z,993.8